Time;durP1;ratioP1;P1;durP2;ratioP2;P2;SDS_P1;SDS_P2;PMS_P1;PMS_P2;Temp;Humidity;BMP_temperature;BMP_pressure;BME280_temperature;BME280_humidity;BME280_pressure;Samples;Min_cycle;Max_cycle;Signal;HPM_P1;HPM_P2
2022/08/19 00:01:39;;;;;;;13.90;8.50;;;;;;;24.14;60.17;99607.31;4994569;28;20176;-74
2022/08/19 00:04:07;;;;;;;10.27;8.85;;;;;;;24.12;60.55;99601.31;4995997;28;20050;-74
2022/08/19 00:06:36;;;;;;;10.13;8.63;;;;;;;24.09;60.45;99594.53;5015024;28;20030;-74
2022/08/19 00:09:04;;;;;;;11.00;8.52;;;;;;;24.03;60.69;99585.28;5015862;28;20084;-74
2022/08/19 00:11:30;;;;;;;10.43;8.70;;;;;;;24.00;60.93;99591.56;5015551;28;20038;-74
2022/08/19 00:13:56;;;;;;;10.45;8.38;;;;;;;23.94;61.07;99568.47;5016760;28;20030;-74
2022/08/19 00:16:24;;;;;;;11.00;8.63;;;;;;;23.93;61.09;99566.16;4983309;28;20072;-74
2022/08/19 00:18:55;;;;;;;10.02;8.27;;;;;;;23.86;61.36;99561.97;4998861;28;20483;-75
2022/08/19 00:21:25;;;;;;;14.52;9.07;;;;;;;23.78;61.81;99556.25;5015732;28;20108;-74
2022/08/19 00:23:53;;;;;;;13.50;8.77;;;;;;;23.72;62.08;99557.88;4999877;28;20459;-75
2022/08/19 00:26:21;;;;;;;12.55;8.60;;;;;;;23.69;62.15;99559.09;5015839;28;20026;-75
2022/08/19 00:28:49;;;;;;;11.13;8.75;;;;;;;23.68;61.92;99549.56;5015556;28;20029;-75
2022/08/19 00:31:16;;;;;;;11.50;8.35;;;;;;;23.63;61.78;99547.69;5016633;28;20032;-75
2022/08/19 00:33:42;;;;;;;12.23;8.77;;;;;;;23.57;62.43;99546.41;5015457;28;20044;-74
2022/08/19 00:36:09;;;;;;;13.07;8.73;;;;;;;23.53;62.40;99548.97;5015523;28;20136;-74
2022/08/19 00:38:38;;;;;;;11.98;8.23;;;;;;;23.47;62.53;99545.53;5016632;28;20381;-74
2022/08/19 00:41:05;;;;;;;12.00;9.27;;;;;;;23.43;63.29;99554.72;4982819;28;20030;-75
2022/08/19 00:43:32;;;;;;;11.38;8.35;;;;;;;23.41;62.71;99554.53;5015281;28;20537;-74
2022/08/19 00:45:59;;;;;;;10.95;9.48;;;;;;;23.42;63.02;99575.75;4998779;28;20029;-73
2022/08/19 00:48:25;;;;;;;11.23;9.30;;;;;;;23.46;62.70;99582.69;4998891;28;20064;-73
2022/08/19 00:51:00;;;;;;;11.48;9.60;;;;;;;23.50;63.07;99579.34;5016410;28;20028;-74
2022/08/19 00:53:30;;;;;;;10.98;8.45;;;;;;;23.53;63.04;99578.13;5014999;28;20466;-75
2022/08/19 00:55:58;;;;;;;11.00;8.48;;;;;;;23.55;62.93;99564.53;4998615;28;20030;-73
2022/08/19 00:58:36;;;;;;;13.13;9.52;;;;;;;23.49;64.34;99537.75;4982452;28;20034;-75
2022/08/19 01:01:11;;;;;;;10.38;8.90;;;;;;;23.42;65.80;99541.50;5015209;28;20474;-74
2022/08/19 01:03:39;;;;;;;12.23;9.43;;;;;;;23.38;66.32;99547.78;5014772;28;20018;-74
2022/08/19 01:06:05;;;;;;;11.90;9.43;;;;;;;23.35;67.11;99551.16;5014712;28;20018;-74
2022/08/19 01:08:30;;;;;;;11.70;10.00;;;;;;;23.33;66.56;99545.91;5014767;28;20022;-75
2022/08/19 01:10:59;;;;;;;10.45;9.18;;;;;;;23.35;66.74;99545.31;5016166;28;20097;-75
2022/08/19 01:13:34;;;;;;;11.57;9.73;;;;;;;23.29;66.83;99542.66;4982326;28;20454;-74
2022/08/19 01:16:07;;;;;;;11.30;9.20;;;;;;;23.25;67.09;99532.78;4998224;28;20073;-74
2022/08/19 01:18:37;;;;;;;10.32;9.18;;;;;;;23.23;67.02;99523.88;4981909;28;20057;-75
2022/08/19 01:21:30;;;;;;;10.95;9.23;;;;;;;23.21;67.31;99523.72;5015474;28;20030;-73
2022/08/19 01:23:55;;;;;;;12.65;9.07;;;;;;;23.21;67.12;99518.63;5000468;28;20065;-74
2022/08/19 01:26:23;;;;;;;13.35;9.07;;;;;;;23.22;66.90;99511.44;4980825;28;20569;-75
2022/08/19 01:28:51;;;;;;;12.43;8.55;;;;;;;23.17;66.89;99517.53;4996867;28;20030;-75
2022/08/19 01:31:21;;;;;;;10.95;8.43;;;;;;;23.13;67.21;99515.03;5014666;28;20029;-74
2022/08/19 01:33:54;;;;;;;11.52;9.10;;;;;;;23.06;66.96;99504.25;5014331;28;20029;-74
2022/08/19 01:36:41;;;;;;;16.95;10.30;;;;;;;22.94;67.59;99500.31;5013126;28;20022;-74
2022/08/19 01:39:10;;;;;;;11.07;8.48;;;;;;;22.94;66.95;99512.75;4997073;28;20032;-74
2022/08/19 01:41:54;;;;;;;14.05;8.38;;;;;;;22.91;67.52;99501.50;5014190;28;20036;-74
2022/08/19 01:44:23;;;;;;;12.45;9.55;;;;;;;22.82;67.51;99511.66;5015601;28;20053;-74
2022/08/19 01:46:50;;;;;;;10.45;8.40;;;;;;;22.74;68.40;99518.94;5014071;28;20029;-73
2022/08/19 01:49:29;;;;;;;10.15;9.18;;;;;;;22.70;68.47;99506.94;4997646;28;20026;-75
2022/08/19 01:51:55;;;;;;;11.43;9.10;;;;;;;22.65;68.15;99513.78;5015113;28;20036;-74
2022/08/19 01:54:23;;;;;;;9.80;7.95;;;;;;;22.55;68.83;99502.03;5014193;28;20112;-74
2022/08/19 01:56:48;;;;;;;15.00;9.70;;;;;;;22.49;68.76;99505.19;4997715;28;20121;-73
2022/08/19 01:59:18;;;;;;;11.25;9.02;;;;;;;22.42;69.34;99497.28;5013967;28;20118;-74
2022/08/19 02:01:52;;;;;;;12.90;9.38;;;;;;;22.36;69.38;99505.53;4981286;28;20115;-75
2022/08/19 02:04:18;;;;;;;10.90;9.27;;;;;;;22.27;69.33;99508.31;5014898;28;20033;-75
2022/08/19 02:06:43;;;;;;;13.55;9.18;;;;;;;22.19;70.18;99517.09;5013716;28;20030;-74
2022/08/19 02:09:09;;;;;;;10.27;8.48;;;;;;;22.15;70.33;99502.16;5012709;28;20088;-75
2022/08/19 02:11:37;;;;;;;10.50;8.93;;;;;;;22.15;70.53;99505.06;5013592;28;20099;-73
2022/08/19 02:14:14;;;;;;;13.93;9.77;;;;;;;22.16;70.23;99502.94;4997634;28;20042;-73
2022/08/19 02:16:40;;;;;;;14.68;9.85;;;;;;;22.15;70.26;99489.75;4999371;28;20133;-74
2022/08/19 02:19:07;;;;;;;10.77;8.93;;;;;;;22.10;69.99;99482.81;5015654;28;20089;-74
2022/08/19 02:21:34;;;;;;;9.93;8.77;;;;;;;22.09;70.39;99484.94;5016593;28;20025;-73
2022/08/19 02:24:04;;;;;;;12.80;10.32;;;;;;;22.07;70.51;99478.97;5015023;28;20041;-74
2022/08/19 02:26:33;;;;;;;10.82;8.77;;;;;;;22.05;71.08;99483.81;5016166;28;20038;-74
2022/08/19 02:29:00;;;;;;;10.60;9.10;;;;;;;22.03;70.67;99487.31;5013990;28;20045;-75
2022/08/19 02:31:27;;;;;;;11.05;8.82;;;;;;;22.02;70.78;99485.00;5014909;28;20041;-73
2022/08/19 02:33:56;;;;;;;9.80;8.75;;;;;;;21.95;70.67;99469.16;5014910;28;20112;-74
2022/08/19 02:36:22;;;;;;;12.82;9.68;;;;;;;21.94;71.15;99467.59;5014712;28;20399;-74
2022/08/19 02:38:50;;;;;;;12.27;9.85;;;;;;;21.91;71.37;99465.88;5013565;28;20462;-74
2022/08/19 02:41:18;;;;;;;13.18;9.25;;;;;;;21.86;71.52;99474.84;4996735;28;20049;-74
2022/08/19 02:43:46;;;;;;;11.27;9.38;;;;;;;21.80;72.32;99480.13;4996621;28;20121;-73
2022/08/19 02:46:24;;;;;;;12.38;9.65;;;;;;;21.74;71.76;99486.16;5013044;28;20062;-73
2022/08/19 02:48:53;;;;;;;10.52;9.43;;;;;;;21.70;72.27;99480.00;4980582;28;20034;-73
2022/08/19 02:51:28;;;;;;;13.45;10.00;;;;;;;21.63;72.08;99481.56;4996975;28;20481;-74
2022/08/19 02:53:56;;;;;;;12.27;9.38;;;;;;;21.60;72.49;99482.75;5013094;28;20040;-74
2022/08/19 02:56:25;;;;;;;13.38;10.13;;;;;;;21.60;72.70;99482.00;5012841;28;20092;-74
2022/08/19 02:58:51;;;;;;;12.88;9.85;;;;;;;21.58;72.50;99484.72;4997156;28;20038;-73
2022/08/19 03:01:22;;;;;;;11.40;9.75;;;;;;;21.53;72.57;99480.66;5012830;28;20030;-75
2022/08/19 03:03:57;;;;;;;10.30;8.63;;;;;;;21.49;72.70;99477.38;5014347;28;20026;-74
2022/08/19 03:06:23;;;;;;;12.15;9.55;;;;;;;21.43;73.05;99465.22;5013010;28;20029;-75
2022/08/19 03:08:50;;;;;;;12.23;10.52;;;;;;;21.42;73.50;99494.84;4996251;28;20447;-75
2022/08/19 03:11:23;;;;;;;13.68;10.20;;;;;;;21.34;73.38;99500.69;5013183;28;20030;-74
2022/08/19 03:13:50;;;;;;;17.02;11.30;;;;;;;21.32;73.76;99517.97;4997798;28;20156;-74
2022/08/19 03:16:16;;;;;;;13.85;11.10;;;;;;;21.32;73.47;99517.19;5013994;28;20593;-75
2022/08/19 03:18:43;;;;;;;15.18;10.70;;;;;;;21.29;73.79;99524.19;4997307;28;20140;-74
2022/08/19 03:21:08;;;;;;;12.38;10.52;;;;;;;21.28;74.25;99519.72;5013326;28;20475;-74
2022/08/19 03:23:35;;;;;;;14.60;9.73;;;;;;;21.29;74.01;99527.09;5013015;28;20032;-74
2022/08/19 03:26:04;;;;;;;13.15;10.85;;;;;;;21.24;74.44;99529.59;4996592;28;20108;-75
2022/08/19 03:28:49;;;;;;;15.13;10.68;;;;;;;21.25;74.10;99524.56;5012749;28;20532;-73
2022/08/19 03:31:19;;;;;;;19.98;11.25;;;;;;;21.23;74.96;99518.59;5012846;28;20096;-74
2022/08/19 03:33:45;;;;;;;13.70;10.43;;;;;;;21.21;74.66;99516.25;4995960;28;20497;-74
2022/08/19 03:36:15;;;;;;;16.02;10.73;;;;;;;21.18;74.60;99526.16;5013946;28;20030;-74
2022/08/19 03:38:44;;;;;;;16.95;11.75;;;;;;;21.16;74.66;99525.19;4995972;28;20045;-74
2022/08/19 03:41:30;;;;;;;14.23;11.25;;;;;;;21.13;74.40;99521.34;4998591;28;20036;-74
2022/08/19 03:43:57;;;;;;;13.88;10.98;;;;;;;21.08;74.64;99522.31;5016323;28;20034;-74
2022/08/19 03:46:36;;;;;;;13.68;11.18;;;;;;;21.03;74.83;99511.69;5017552;28;20034;-74
2022/08/19 03:49:08;;;;;;;13.45;11.45;;;;;;;20.98;75.48;99514.81;5016163;28;20025;-74
2022/08/19 03:51:37;;;;;;;16.48;11.55;;;;;;;20.90;76.10;99526.44;5000798;28;20111;-73
2022/08/19 03:54:07;;;;;;;15.77;11.68;;;;;;;20.87;76.20;99536.31;5017502;28;20415;-73
2022/08/19 03:56:37;;;;;;;19.00;14.82;;;;;;;20.86;76.38;99540.56;4983676;28;20060;-74
2022/08/19 03:59:06;;;;;;;15.27;12.35;;;;;;;20.85;77.09;99533.22;5017092;28;20030;-74
2022/08/19 04:01:35;;;;;;;16.17;12.07;;;;;;;20.88;77.04;99549.50;5016454;28;20065;-73
2022/08/19 04:04:01;;;;;;;13.88;11.52;;;;;;;20.90;76.90;99543.06;4999763;28;20502;-74
2022/08/19 04:06:30;;;;;;;15.82;11.70;;;;;;;20.96;76.47;99541.53;4999701;28;20041;-74
2022/08/19 04:08:59;;;;;;;13.25;10.55;;;;;;;21.05;76.21;99540.13;5016036;28;20034;-75
2022/08/19 04:11:39;;;;;;;18.52;12.68;;;;;;;21.12;76.41;99543.03;4999538;28;20058;-73
2022/08/19 04:14:04;;;;;;;16.38;12.80;;;;;;;21.18;76.31;99540.69;4999901;28;20026;-74
2022/08/19 04:16:30;;;;;;;15.30;11.80;;;;;;;21.27;75.84;99553.06;5016069;28;20156;-74
2022/08/19 04:19:00;;;;;;;18.55;11.88;;;;;;;21.34;75.59;99543.53;5015604;28;20072;-74
2022/08/19 04:21:27;;;;;;;15.20;12.15;;;;;;;21.38;75.74;99553.41;4999335;28;20049;-74
2022/08/19 04:23:55;;;;;;;18.08;11.77;;;;;;;21.44;75.46;99550.25;5015644;28;20062;-74
2022/08/19 04:26:38;;;;;;;17.90;13.02;;;;;;;21.57;75.26;99558.78;5015760;28;20038;-74
2022/08/19 04:29:07;;;;;;;16.98;11.88;;;;;;;21.66;74.41;99558.16;5015885;28;20034;-75
2022/08/19 04:31:36;;;;;;;20.63;13.07;;;;;;;21.70;74.64;99558.50;4999089;28;20033;-74
2022/08/19 04:34:05;;;;;;;14.63;11.55;;;;;;;21.78;74.18;99561.41;5016931;28;20379;-74
2022/08/19 04:36:33;;;;;;;16.98;13.02;;;;;;;21.81;74.11;99555.16;5016431;28;20034;-73
2022/08/19 04:39:02;;;;;;;13.10;11.68;;;;;;;21.95;73.60;99549.84;5016752;28;20021;-74
2022/08/19 04:44:17;;;;;;;15.15;11.55;;;;;;;22.33;72.39;99537.94;4997486;28;20045;-81
2022/08/19 04:46:47;;;;;;;15.15;12.40;;;;;;;22.49;72.21;99533.53;5012689;28;20026;-81
2022/08/19 04:49:12;;;;;;;19.67;13.05;;;;;;;22.57;71.38;99531.31;4996659;28;20022;-78
2022/08/19 04:51:44;;;;;;;18.80;12.52;;;;;;;22.71;71.47;99538.41;4996406;28;20126;-82
2022/08/19 04:54:13;;;;;;;15.55;12.30;;;;;;;22.82;71.17;99534.97;4998946;28;20038;-80
2022/08/19 04:56:41;;;;;;;15.60;12.35;;;;;;;22.90;70.78;99523.28;5002871;28;20390;-79
2022/08/19 04:59:08;;;;;;;15.02;12.27;;;;;;;22.97;70.18;99525.31;5018865;28;20045;-81
2022/08/19 05:01:36;;;;;;;19.65;12.93;;;;;;;23.02;70.08;99523.53;5035521;28;20374;-75
2022/08/19 05:04:04;;;;;;;18.38;12.77;;;;;;;23.14;69.99;99519.50;5034911;28;20037;-75
2022/08/19 05:06:32;;;;;;;16.08;11.85;;;;;;;23.29;69.46;99524.38;5034900;28;20029;-74
2022/08/19 05:08:58;;;;;;;19.15;13.63;;;;;;;23.46;68.87;99530.19;5034391;28;20025;-75
2022/08/19 05:11:28;;;;;;;22.33;12.70;;;;;;;23.65;68.24;99526.69;5017835;28;20359;-76
2022/08/19 05:13:57;;;;;;;21.67;12.47;;;;;;;23.78;67.78;99535.81;5034393;28;20044;-76
2022/08/19 05:16:31;;;;;;;15.98;12.60;;;;;;;23.95;67.61;99534.97;5018271;28;20272;-76
2022/08/19 05:24:33;;;;;;;21.27;12.95;;;;;;;24.46;64.93;99531.09;5034512;28;20088;-75
2022/08/19 05:26:59;;;;;;;28.52;14.45;;;;;;;24.51;64.80;99524.19;5002056;28;20091;-76
2022/08/19 05:29:27;;;;;;;22.55;13.40;;;;;;;24.61;64.33;99527.91;5033893;28;20025;-76
2022/08/19 05:31:54;;;;;;;19.25;13.25;;;;;;;24.71;64.11;99533.78;5034336;28;20398;-74
2022/08/19 05:34:29;;;;;;;27.67;13.40;;;;;;;24.74;63.83;99537.63;5035801;28;20125;-73
2022/08/19 05:36:57;;;;;;;20.38;14.13;;;;;;;24.82;63.87;99547.03;5035753;28;20047;-73
2022/08/19 05:39:28;;;;;;;29.27;13.77;;;;;;;24.88;63.26;99548.31;5001477;28;20030;-74
2022/08/19 05:42:03;;;;;;;24.40;13.98;;;;;;;25.00;63.10;99548.47;5033913;28;20367;-73
2022/08/19 05:44:32;;;;;;;27.42;13.43;;;;;;;25.17;62.84;99542.50;5033933;28;20029;-77
2022/08/19 05:47:00;;;;;;;30.45;13.40;;;;;;;25.29;62.25;99540.47;5018344;28;20034;-77
2022/08/19 05:49:28;;;;;;;17.58;13.30;;;;;;;25.35;61.75;99540.94;5033643;28;20037;-74
2022/08/19 05:51:55;;;;;;;28.70;13.13;;;;;;;25.34;61.56;99551.09;5034373;28;20112;-77
2022/08/19 05:54:29;;;;;;;18.90;13.90;;;;;;;25.35;61.37;99526.31;5017482;28;20034;-75
2022/08/19 05:56:56;;;;;;;20.60;13.70;;;;;;;25.36;61.34;99538.78;5035076;28;20025;-75
2022/08/19 05:59:23;;;;;;;18.60;12.85;;;;;;;25.42;61.39;99551.72;5033441;28;20107;-76
2022/08/19 06:01:50;;;;;;;32.65;16.90;;;;;;;25.43;60.80;99556.19;5016980;28;20025;-74
2022/08/19 06:04:18;;;;;;;17.27;14.18;;;;;;;25.49;60.68;99550.81;5016247;28;20044;-74
2022/08/19 06:06:44;;;;;;;19.67;13.57;;;;;;;25.56;60.79;99548.34;5033529;28;20136;-74
2022/08/19 06:09:11;;;;;;;15.75;13.30;;;;;;;25.67;60.44;99566.06;5034035;28;20386;-74
2022/08/19 06:11:48;;;;;;;23.73;13.23;;;;;;;25.85;60.07;99575.44;5034934;28;20064;-74
2022/08/19 06:14:17;;;;;;;34.72;15.25;;;;;;;26.10;59.47;99578.00;5033153;28;20044;-73
2022/08/19 06:16:52;;;;;;;18.75;13.52;;;;;;;26.17;58.90;99583.69;5017394;28;20072;-77
2022/08/19 06:19:19;;;;;;;26.50;13.98;;;;;;;26.26;59.06;99597.56;5000780;28;20045;-78
2022/08/19 06:21:46;;;;;;;15.95;12.70;;;;;;;26.50;58.92;99598.56;5009436;28;20026;-77
2022/08/19 06:24:15;;;;;;;19.63;12.65;;;;;;;26.74;57.68;99597.41;5013334;28;20032;-75
2022/08/19 06:26:44;;;;;;;16.45;13.23;;;;;;;27.06;57.14;99595.22;4995116;28;20517;-75
2022/08/19 06:29:12;;;;;;;16.55;12.10;;;;;;;27.45;56.12;99586.94;5009583;28;20471;-79
2022/08/19 06:31:42;;;;;;;16.90;12.30;;;;;;;27.76;54.89;99596.38;4994029;28;20157;-78
2022/08/19 06:34:09;;;;;;;29.83;14.57;;;;;;;28.03;54.11;99596.78;4993674;28;20023;-75
2022/08/19 06:36:37;;;;;;;19.85;13.43;;;;;;;28.30;52.97;99608.06;4978067;28;20074;-77
2022/08/19 06:39:11;;;;;;;30.40;12.68;;;;;;;28.71;52.34;99620.28;4993929;28;20034;-75
2022/08/19 06:41:42;;;;;;;91.22;21.08;;;;;;;29.69;50.47;99630.06;4994781;28;20022;-80
2022/08/19 06:44:18;;;;;;;28.88;12.23;;;;;;;31.11;46.11;99629.31;4993510;28;20053;-74
2022/08/19 06:46:45;;;;;;;20.85;12.38;;;;;;;32.20;43.46;99635.84;4994667;28;20534;-75
2022/08/19 06:49:13;;;;;;;25.92;12.25;;;;;;;33.39;41.66;99637.84;5026282;28;20467;-75
2022/08/19 06:51:43;;;;;;;16.15;10.30;;;;;;;34.78;38.94;99646.00;4994494;28;20030;-76
2022/08/19 06:54:09;;;;;;;21.50;11.35;;;;;;;36.23;34.94;99640.97;5012326;28;20117;-74
2022/08/19 06:56:36;;;;;;;15.85;10.10;;;;;;;37.58;33.19;99652.59;5013065;28;20032;-77
2022/08/19 06:59:05;;;;;;;26.30;11.13;;;;;;;38.65;31.89;99657.66;4996884;28;20488;-76
2022/08/19 07:01:39;;;;;;;16.15;10.30;;;;;;;39.99;30.18;99664.28;5013430;28;20128;-78
2022/08/19 07:04:08;;;;;;;16.50;10.43;;;;;;;40.92;27.41;99669.59;5013914;28;20045;-75
2022/08/19 07:06:36;;;;;;;12.93;9.70;;;;;;;40.25;27.58;99667.72;5012631;28;20467;-75
2022/08/19 07:09:05;;;;;;;24.35;10.52;;;;;;;38.99;29.24;99673.41;4996291;28;20030;-74
2022/08/19 07:11:32;;;;;;;12.95;9.02;;;;;;;39.48;29.43;99647.56;4996489;28;20025;-74
2022/08/19 07:14:00;;;;;;;12.52;9.15;;;;;;;40.95;27.58;99658.38;5016461;28;20025;-76
2022/08/19 07:16:31;;;;;;;13.00;8.27;;;;;;;42.11;26.55;99667.28;5012449;28;20038;-75
2022/08/19 07:18:59;;;;;;;11.13;8.10;;;;;;;43.23;24.42;99671.91;5010900;28;20049;-77
2022/08/19 07:21:35;;;;;;;23.40;10.45;;;;;;;43.18;23.72;99682.41;5011421;28;20096;-76
2022/08/19 07:24:04;;;;;;;18.05;10.10;;;;;;;43.58;23.14;99693.91;5011447;28;20030;-77
2022/08/19 07:26:33;;;;;;;37.63;8.90;;;;;;;44.63;21.61;99693.34;4995022;28;20080;-74
2022/08/19 07:29:02;;;;;;;12.10;7.28;;;;;;;45.15;20.70;99699.28;5013572;28;20081;-83
2022/08/19 07:31:41;;;;;;;11.57;7.47;;;;;;;45.75;19.82;99702.84;5014237;28;20017;-80
2022/08/19 07:34:11;;;;;;;13.77;7.77;;;;;;;45.33;20.92;99706.78;5015102;28;20048;-78
2022/08/19 07:36:40;;;;;;;15.85;7.68;;;;;;;46.01;20.35;99699.72;5000395;28;20121;-81
2022/08/19 07:39:12;;;;;;;9.43;7.28;;;;;;;46.00;20.21;99705.00;4999379;28;20490;-83
2022/08/19 07:41:38;;;;;;;9.43;8.13;;;;;;;46.72;19.63;99708.97;5016524;28;20143;-81
2022/08/19 07:44:07;;;;;;;11.98;7.60;;;;;;;47.06;19.09;99713.94;4980672;28;20470;-79
2022/08/19 07:46:39;;;;;;;8.52;7.45;;;;;;;47.30;18.50;99712.91;5012558;28;20026;-79
2022/08/19 07:49:18;;;;;;;14.82;8.13;;;;;;;47.68;18.26;99712.47;5016052;28;20449;-76
2022/08/19 07:52:05;;;;;;;24.83;7.45;;;;;;;47.92;17.99;99705.31;5016749;28;20021;-77
2022/08/19 07:54:34;;;;;;;10.65;7.05;;;;;;;48.48;18.48;99687.78;5030665;28;20540;-80
2022/08/19 07:56:59;;;;;;;10.93;6.90;;;;;;;48.20;16.57;99709.47;4981477;28;20022;-84
2022/08/19 07:59:28;;;;;;;12.93;6.93;;;;;;;47.89;17.79;99715.22;5000686;28;20026;-78
2022/08/19 08:01:54;;;;;;;15.57;8.02;;;;;;;47.88;17.28;99716.75;5016545;28;20475;-77
2022/08/19 08:09:53;;;;;;;30.88;10.57;;;;;;;46.50;18.15;99723.53;5014011;28;20402;-82
2022/08/19 08:12:28;;;;;;;9.15;6.13;;;;;;;46.09;18.36;99720.81;5045932;28;20068;-80
2022/08/19 08:15:01;;;;;;;8.20;6.57;;;;;;;46.26;18.86;99724.44;5037491;28;20053;-85
2022/08/19 08:17:29;;;;;;;13.48;7.35;;;;;;;47.01;19.05;99721.53;5021212;28;20033;-76
2022/08/19 08:19:57;;;;;;;10.73;6.53;;;;;;;47.57;18.25;99719.41;5002447;28;20510;-80
2022/08/19 08:25:22;;;;;;;13.65;6.60;;;;;;;47.91;17.55;99734.13;5019539;28;20068;-78
2022/08/19 08:27:49;;;;;;;20.90;7.55;;;;;;;47.12;17.43;99729.03;5021640;28;20025;-81
2022/08/19 08:30:30;;;;;;;11.55;7.05;;;;;;;46.88;18.25;99720.94;5018877;28;20046;-79
2022/08/19 08:32:55;;;;;;;11.00;6.45;;;;;;;46.80;18.29;99714.22;5036039;28;20029;-81
2022/08/19 08:35:23;;;;;;;10.07;7.32;;;;;;;46.46;19.23;99706.91;5035462;28;20033;-85
2022/08/19 08:37:51;;;;;;;13.30;6.55;;;;;;;45.34;19.51;99702.25;5018916;28;20192;-79
2022/08/19 08:40:38;;;;;;;11.65;7.13;;;;;;;43.01;22.23;99690.56;5036435;28;20040;-79
2022/08/19 08:43:10;;;;;;;15.10;7.57;;;;;;;42.00;22.36;99692.72;5034793;28;20022;-79
2022/08/19 08:45:42;;;;;;;8.43;7.00;;;;;;;41.87;22.51;99694.06;5035561;28;20048;-79
2022/08/19 08:48:18;;;;;;;9.27;6.13;;;;;;;42.27;21.52;99696.75;5018758;28;20049;-81
2022/08/19 08:50:47;;;;;;;15.15;7.65;;;;;;;42.97;21.47;99686.78;4998615;28;20029;-79
2022/08/19 08:53:16;;;;;;;9.70;6.72;;;;;;;43.67;20.50;99691.66;5015202;28;20105;-77
2022/08/19 08:55:42;;;;;;;9.02;6.68;;;;;;;44.24;20.15;99693.31;4984191;28;20471;-80
2022/08/19 08:58:15;;;;;;;9.82;6.35;;;;;;;44.52;20.10;99679.75;5016799;28;20034;-81
2022/08/19 09:00:48;;;;;;;11.73;7.00;;;;;;;44.69;20.56;99685.03;4999532;28;20029;-78
2022/08/19 09:03:21;;;;;;;9.30;6.05;;;;;;;44.60;21.20;99671.47;4998863;28;20080;-80
2022/08/19 09:06:16;;;;;;;9.23;6.68;;;;;;;44.67;20.46;99651.88;4998901;28;20030;-79
2022/08/19 09:08:52;;;;;;;8.23;6.22;;;;;;;44.46;20.25;99653.38;5015984;28;20030;-79
2022/08/19 09:11:58;;;;;;;7.18;6.20;;;;;;;44.46;19.62;99656.38;5014391;28;20021;-79
2022/08/19 09:14:53;;;;;;;9.90;5.97;;;;;;;44.32;20.06;99672.22;5012583;28;20073;-80
2022/08/19 09:17:24;;;;;;;8.20;6.78;;;;;;;44.26;20.49;99675.25;5031344;28;20057;-80
2022/08/19 09:20:19;;;;;;;7.70;5.88;;;;;;;44.09;19.64;99679.72;5015677;28;20069;-77
2022/08/19 09:22:49;;;;;;;7.50;6.13;;;;;;;43.79;21.08;99671.38;5016900;28;20040;-79
2022/08/19 09:25:24;;;;;;;12.40;6.47;;;;;;;43.50;20.28;99679.56;5021340;28;20017;-81
2022/08/19 09:27:51;;;;;;;17.90;8.15;;;;;;;43.04;20.76;99665.06;5018422;28;20605;-80
2022/08/19 09:30:21;;;;;;;10.95;7.00;;;;;;;42.43;21.64;99666.09;5014896;28;20053;-79
2022/08/19 09:32:48;;;;;;;15.07;7.38;;;;;;;41.80;21.94;99665.47;5016752;28;20030;-79
2022/08/19 09:35:21;;;;;;;16.95;7.75;;;;;;;41.44;22.67;99654.53;5015961;28;20033;-77
2022/08/19 09:37:49;;;;;;;16.60;7.53;;;;;;;40.80;23.41;99660.41;5016346;28;20585;-77
2022/08/19 09:40:24;;;;;;;12.15;6.57;;;;;;;40.13;23.52;99662.28;5015417;28;20022;-77
2022/08/19 09:42:57;;;;;;;16.85;7.68;;;;;;;39.50;24.39;99656.56;5016239;28;20029;-77
2022/08/19 09:45:23;;;;;;;32.47;11.13;;;;;;;38.72;25.39;99657.09;5014800;28;20034;-78
2022/08/19 09:47:50;;;;;;;8.90;7.13;;;;;;;37.91;26.56;99646.09;5030520;28;20029;-79
2022/08/19 09:50:17;;;;;;;9.95;7.72;;;;;;;37.69;28.27;99639.47;5014029;28;20030;-80
2022/08/19 09:52:48;;;;;;;19.20;6.80;;;;;;;37.76;27.38;99635.22;5014123;28;20030;-80
2022/08/19 09:55:13;;;;;;;45.78;11.52;;;;;;;37.81;27.71;99648.03;5013790;28;20087;-80
2022/08/19 09:57:40;;;;;;;13.27;7.10;;;;;;;37.76;26.78;99640.44;5013926;28;20426;-77
2022/08/19 10:00:07;;;;;;;11.63;6.35;;;;;;;37.71;27.61;99642.53;5015075;28;20017;-77
2022/08/19 10:02:33;;;;;;;11.13;5.75;;;;;;;37.24;27.18;99658.28;5014124;28;20041;-82
2022/08/19 10:07:45;;;;;;;10.57;6.72;;;;;;;36.79;28.76;99653.19;5014075;28;20041;-80
2022/08/19 10:10:10;;;;;;;14.27;6.65;;;;;;;36.87;29.13;99641.53;5016810;28;20022;-76
2022/08/19 10:12:36;;;;;;;12.27;6.47;;;;;;;37.01;29.04;99647.19;5030442;28;20470;-73
2022/08/19 10:15:12;;;;;;;9.45;5.55;;;;;;;37.11;28.13;99647.50;5013674;28;20030;-74
2022/08/19 10:17:39;;;;;;;13.48;5.63;;;;;;;37.14;28.30;99649.06;5015043;28;20482;-74
2022/08/19 10:20:06;;;;;;;12.43;5.97;;;;;;;37.06;27.82;99643.63;5012946;28;20056;-75
2022/08/19 10:22:32;;;;;;;11.10;5.90;;;;;;;36.95;27.44;99652.94;5015552;28;20030;-78
2022/08/19 10:24:57;;;;;;;5.97;5.32;;;;;;;36.96;28.88;99646.31;5013522;28;20018;-77
2022/08/19 10:27:23;;;;;;;16.30;7.15;;;;;;;36.93;27.82;99643.97;5013596;28;20375;-76
2022/08/19 10:29:49;;;;;;;8.88;6.18;;;;;;;36.88;28.33;99643.81;5013509;28;20046;-81
2022/08/19 10:32:17;;;;;;;12.98;6.32;;;;;;;36.85;28.30;99626.56;4996551;28;20026;-77
2022/08/19 10:34:43;;;;;;;8.63;5.68;;;;;;;36.85;29.36;99624.34;5012909;28;20022;-77
2022/08/19 10:37:09;;;;;;;8.80;5.93;;;;;;;36.77;29.66;99632.28;5013510;28;20030;-78
2022/08/19 10:39:36;;;;;;;13.73;6.38;;;;;;;36.79;28.33;99630.09;5015145;28;20013;-78
2022/08/19 10:42:06;;;;;;;6.72;4.85;;;;;;;36.88;27.32;99625.94;5013644;28;20050;-78
2022/08/19 10:44:32;;;;;;;13.18;6.90;;;;;;;36.81;26.99;99620.47;5029616;28;20368;-76
2022/08/19 10:46:58;;;;;;;36.35;9.68;;;;;;;36.79;27.03;99624.16;5029230;28;20462;-74
2022/08/19 10:49:24;;;;;;;13.82;5.65;;;;;;;36.80;28.76;99628.66;5012384;28;20092;-74
2022/08/19 10:57:23;;;;;;;10.95;5.35;;;;;;;36.90;31.19;99636.41;5018406;28;20036;-75
2022/08/19 10:59:50;;;;;;;7.25;5.30;;;;;;;36.94;29.33;99627.59;5021716;28;20026;-76
2022/08/19 11:02:21;;;;;;;6.80;4.95;;;;;;;36.96;28.25;99643.31;5029705;28;20021;-81
2022/08/19 11:04:49;;;;;;;7.53;5.43;;;;;;;36.81;27.04;99636.16;5031394;28;20029;-75
2022/08/19 11:07:15;;;;;;;9.20;5.03;;;;;;;36.28;28.04;99638.88;5016227;28;20021;-77
2022/08/19 11:09:41;;;;;;;7.50;5.28;;;;;;;36.21;29.33;99628.22;5032457;28;20399;-77
2022/08/19 11:12:08;;;;;;;7.20;4.93;;;;;;;36.26;30.37;99626.88;5032261;28;20505;-76
2022/08/19 11:14:38;;;;;;;17.90;6.63;;;;;;;36.38;30.69;99628.06;5032250;28;20029;-76
2022/08/19 11:17:04;;;;;;;9.70;5.93;;;;;;;36.42;29.96;99631.16;5016080;28;20108;-75
2022/08/19 11:19:30;;;;;;;14.82;6.78;;;;;;;36.26;30.94;99627.66;5015714;28;20050;-75
2022/08/19 11:21:56;;;;;;;11.52;5.38;;;;;;;36.21;31.97;99626.00;5032228;28;20070;-76
2022/08/19 11:24:24;;;;;;;12.63;5.88;;;;;;;36.10;32.06;99627.09;5032343;28;20029;-77
2022/08/19 11:26:51;;;;;;;7.32;4.95;;;;;;;35.96;30.11;99633.31;4999716;28;20025;-75
2022/08/19 11:29:19;;;;;;;5.10;4.18;;;;;;;35.91;28.76;99619.00;5015745;28;20076;-76
2022/08/19 11:31:49;;;;;;;12.73;5.25;;;;;;;35.83;29.83;99631.38;5016001;28;20037;-76
2022/08/19 11:34:27;;;;;;;8.55;4.90;;;;;;;35.79;32.96;99622.31;5016186;28;20033;-79
2022/08/19 11:36:54;;;;;;;10.48;5.90;;;;;;;35.49;32.90;99630.13;5000108;28;20030;-77
2022/08/19 11:39:21;;;;;;;11.98;5.50;;;;;;;35.23;33.46;99635.09;5032273;28;20029;-79
2022/08/19 11:41:48;;;;;;;10.20;5.10;;;;;;;35.02;34.63;99627.59;5004732;28;20033;-78
2022/08/19 11:44:14;;;;;;;8.48;5.18;;;;;;;34.58;34.33;99638.47;5032507;28;20032;-78
2022/08/19 11:46:41;;;;;;;26.95;7.85;;;;;;;34.21;35.37;99636.25;5032355;28;20029;-75
2022/08/19 11:49:09;;;;;;;8.55;3.97;;;;;;;34.03;32.58;99644.34;5032025;28;20025;-78
2022/08/19 11:51:34;;;;;;;12.68;4.25;;;;;;;34.30;31.86;99641.06;5032148;28;20032;-76
2022/08/19 11:54:01;;;;;;;10.15;3.20;;;;;;;34.63;27.98;99652.06;5032000;28;20038;-76
2022/08/19 11:56:27;;;;;;;6.57;4.13;;;;;;;34.99;30.71;99640.88;5032055;28;20398;-78
2022/08/19 11:58:56;;;;;;;7.03;3.13;;;;;;;35.02;29.06;99633.53;5015585;28;20037;-75
2022/08/19 12:01:25;;;;;;;11.43;4.60;;;;;;;35.04;31.96;99637.38;5002076;28;20065;-82